.
WxDataArchive / Data Records for 2011-05-12
2011-05-11 May 2011 2011-05-13

Data Records for Thursday, 12 May 2011

Time	Temp	Chill	HIndex	Humid	Dewpt	 Wind 	HiWind	WindDir	Rain 	Barom 
-----	----	-----	------	-----	-----	------	------	-------	-----	----- 
00:00	66.8	66.8	66.8	62	53.4	1	4	112	0.00	29.872 
00:05	66.6	66.6	66.6	62	53.2	1	3	112	0.00	29.872 
00:10	66.6	66.6	66.6	61	52.7	0	2	112	0.00	29.872 
00:15	66.4	66.4	66.4	61	52.5	0	0	---	0.00	29.874 
00:20	66.3	66.3	66.3	62	52.9	0	0	---	0.00	29.874 
00:25	66.1	66.1	66.1	62	52.7	0	0	---	0.00	29.874 
00:30	66.0	66.0	66.0	62	52.6	0	0	---	0.00	29.874 
00:35	66.0	66.0	66.0	62	52.6	0	0	---	0.00	29.874 
00:40	65.8	65.8	65.8	63	52.8	0	0	---	0.00	29.874 
00:45	65.6	65.6	65.6	63	52.7	0	0	---	0.00	29.872 
00:50	65.5	65.5	65.5	62	52.1	0	0	---	0.00	29.872 
00:55	65.3	65.3	65.3	63	52.4	0	0	---	0.00	29.872 
01:00	65.2	65.2	65.2	63	52.3	0	0	---	0.00	29.874 
01:05	65.0	65.0	65.0	64	52.5	0	0	---	0.00	29.874 
01:10	64.8	64.8	64.8	64	52.3	0	0	---	0.00	29.874 
01:15	64.7	64.7	64.7	65	52.7	0	0	---	0.00	29.874 
01:20	64.5	64.5	64.5	65	52.5	0	0	---	0.00	29.874 
01:25	64.3	64.3	64.3	65	52.3	0	0	---	0.00	29.874 
01:30	64.2	64.2	64.2	65	52.2	0	0	---	0.00	29.880 
01:35	64.0	64.0	64.0	66	52.4	0	0	---	0.00	29.880 
01:40	64.0	64.0	64.0	66	52.4	0	0	---	0.00	29.880 
01:45	64.0	64.0	64.0	66	52.4	0	0	---	0.00	29.880 
01:50	63.9	63.9	63.9	66	52.3	0	0	---	0.00	29.880 
01:55	63.9	63.9	63.9	65	51.9	0	0	---	0.00	29.880 
02:00	63.7	63.7	63.7	65	51.7	0	0	---	0.00	29.881 
02:05	63.7	63.7	63.7	65	51.7	0	0	---	0.00	29.881 
02:10	63.5	63.5	63.5	66	51.9	0	0	---	0.00	29.881 
02:15	63.5	63.5	63.5	66	51.9	0	0	---	0.00	29.880 
02:20	63.4	63.4	63.4	67	52.2	0	0	---	0.00	29.880 
02:25	63.4	63.4	63.4	66	51.8	0	2	112	0.00	29.880 
02:30	63.2	63.2	63.2	66	51.6	0	1	112	0.00	29.866 
02:35	63.2	63.2	63.2	65	51.2	0	0	---	0.00	29.866 
02:40	63.2	63.2	63.2	65	51.2	0	1	112	0.00	29.866 
02:45	63.2	63.2	63.2	65	51.2	0	0	---	0.00	29.855 
02:50	63.1	63.1	63.1	66	51.6	0	0	---	0.00	29.855 
02:55	62.9	62.9	62.9	66	51.4	0	0	---	0.00	29.855 
03:00	62.7	62.7	62.7	66	51.2	0	0	---	0.00	29.856 
03:05	62.4	62.4	62.4	67	51.3	0	0	---	0.00	29.856 
03:10	62.3	62.3	62.3	68	51.6	0	1	112	0.00	29.856 
03:15	62.1	62.1	62.1	68	51.4	0	0	---	0.00	29.859 
03:20	62.1	62.1	62.1	68	51.4	0	0	---	0.00	29.859 
03:25	62.0	62.0	62.0	68	51.3	0	1	112	0.00	29.859 
03:30	61.8	61.8	61.8	67	50.7	0	3	112	0.00	29.864 
03:35	61.8	61.8	61.8	66	50.3	0	2	112	0.00	29.864 
03:40	61.6	61.6	61.6	66	50.1	1	4	112	0.00	29.864 
03:45	61.5	61.5	61.5	66	50.0	1	5	90	0.00	29.861 
03:50	61.3	61.3	61.3	66	49.8	1	3	90	0.00	29.861 
03:55	61.3	61.3	61.3	67	50.2	1	2	112	0.00	29.861 
04:00	61.2	61.2	61.2	68	50.5	1	5	90	0.00	29.866 
04:05	61.2	61.2	61.2	68	50.5	1	3	90	0.00	29.866 
04:10	61.2	61.2	61.2	68	50.5	1	3	68	0.00	29.866 
04:15	61.2	61.2	61.2	69	50.9	1	3	68	0.00	29.874 
04:20	61.2	61.2	61.2	69	50.9	1	3	68	0.00	29.874 
04:25	61.3	61.3	61.3	69	51.0	1	5	90	0.00	29.874 
04:30	61.3	61.3	61.3	69	51.0	1	3	90	0.00	29.878 
04:35	61.5	61.5	61.5	69	51.2	1	6	90	0.00	29.878 
04:40	61.5	61.5	61.5	69	51.2	2	6	112	0.00	29.878 
04:45	61.5	61.5	61.5	69	51.2	2	5	135	0.00	29.871 
04:50	61.3	61.3	61.3	69	51.0	2	7	112	0.00	29.871 
04:55	61.0	61.0	61.0	69	50.8	1	3	112	0.00	29.871 
05:00	60.9	60.9	60.9	70	51.0	1	3	112	0.00	29.867 
05:05	60.5	60.5	60.5	71	51.0	2	8	112	0.00	29.867 
05:10	60.4	60.4	60.4	71	50.9	1	9	112	0.00	29.867 
05:15	60.2	60.2	60.2	72	51.1	0	1	112	0.00	29.865 
05:20	60.1	60.1	60.1	72	51.0	1	4	112	0.00	29.865 
05:25	59.9	59.9	59.9	73	51.2	1	3	112	0.00	29.865 
05:30	59.8	59.8	59.8	74	51.5	0	3	112	0.00	29.870 
05:35	59.6	59.6	59.6	74	51.3	0	3	112	0.00	29.870 
05:40	59.6	59.6	59.6	74	51.3	0	0	---	0.00	29.870 
05:45	59.5	59.5	59.5	75	51.6	0	0	---	0.00	29.874 
05:50	59.3	59.3	59.3	76	51.7	0	0	---	0.00	29.874 
05:55	59.2	59.2	59.2	76	51.6	0	0	---	0.00	29.874 
06:00	59.0	59.0	59.0	77	51.8	0	0	---	0.00	29.875 
06:05	58.9	58.9	58.9	77	51.7	0	0	---	0.00	29.875 
06:10	58.9	58.9	58.9	78	52.0	0	0	---	0.00	29.875 
06:15	58.7	58.7	58.7	78	51.9	0	0	---	0.00	29.877 
06:20	58.6	58.6	58.6	79	52.1	0	0	---	0.00	29.877 
06:25	58.6	58.6	58.6	79	52.1	0	1	112	0.00	29.877 
06:30	58.7	58.7	58.7	79	52.2	0	1	112	0.00	29.879 
06:35	58.7	58.7	58.7	79	52.2	0	2	112	0.00	29.879 
06:40	58.9	58.9	58.9	79	52.4	0	2	112	0.00	29.879 
06:45	58.9	58.9	58.9	79	52.4	0	1	112	0.00	29.885 
06:50	59.0	59.0	59.0	79	52.5	0	1	112	0.00	29.885 
06:55	59.0	59.0	59.0	79	52.5	0	2	112	0.00	29.885 
07:00	59.2	59.2	59.2	79	52.7	0	3	112	0.00	29.888 
07:05	59.2	59.2	59.2	79	52.7	0	2	112	0.00	29.888 
07:10	59.2	59.2	59.2	79	52.7	0	1	112	0.00	29.888 
07:15	59.2	59.2	59.2	79	52.7	0	1	112	0.00	29.887 
07:20	59.3	59.3	59.3	79	52.8	0	2	112	0.00	29.887 
07:25	59.5	59.5	59.5	79	53.0	0	1	112	0.00	29.887 
07:30	59.5	59.5	59.5	79	53.0	1	4	112	0.00	29.886 
07:35	59.8	59.8	59.8	79	53.3	0	2	112	0.00	29.886 
07:40	59.9	59.9	59.9	79	53.4	0	0	---	0.00	29.886 
07:45	60.2	60.2	60.2	78	53.3	0	0	---	0.00	29.894 
07:50	60.4	60.4	60.4	78	53.5	0	3	112	0.00	29.894 
07:55	60.4	60.4	60.4	78	53.5	1	3	90	0.00	29.894 
08:00	60.4	60.4	60.4	78	53.5	0	2	90	0.00	29.886 
08:05	60.5	60.5	60.5	78	53.6	0	2	112	0.00	29.886 
08:10	60.5	60.5	60.5	78	53.6	0	1	112	0.00	29.886 
08:15	60.9	60.9	60.9	78	54.0	0	2	112	0.00	29.887 
08:20	61.2	61.2	61.2	78	54.3	1	3	112	0.00	29.887 
08:25	61.5	61.5	61.5	78	54.6	1	3	112	0.00	29.887 
08:30	62.0	62.0	62.0	77	54.7	1	3	112	0.00	29.894 
08:35	62.3	62.3	62.3	76	54.6	0	3	112	0.00	29.894 
08:40	62.7	62.7	62.7	76	55.0	0	0	---	0.00	29.894 
08:45	63.2	63.2	63.2	75	55.1	0	1	112	0.00	29.893 
08:50	63.7	63.7	63.7	75	55.6	0	1	112	0.00	29.893 
08:55	63.9	63.9	63.9	74	55.4	0	1	112	0.00	29.893 
09:00	63.9	63.9	63.9	74	55.4	0	0	---	0.00	29.900 
09:05	63.9	63.9	63.9	74	55.4	0	0	---	0.00	29.900 
09:10	63.9	63.9	63.9	74	55.4	0	1	112	0.00	29.900 
09:15	63.9	63.9	63.9	76	56.2	0	0	---	0.00	29.900 
09:20	63.9	63.9	63.9	77	56.5	0	1	112	0.00	29.900 
09:25	64.0	64.0	64.0	76	56.3	0	1	112	0.00	29.900 
09:30	64.0	64.0	64.0	75	55.9	0	1	112	0.00	29.896 
09:35	64.2	64.2	64.2	75	56.1	0	1	112	0.00	29.896 
09:40	64.3	64.3	64.3	76	56.6	0	2	112	0.00	29.896 
09:45	64.5	64.5	64.5	77	57.1	0	2	112	0.00	29.881 
09:50	64.7	64.7	64.7	76	57.0	0	2	112	0.00	29.881 
09:55	64.8	64.8	64.8	75	56.7	0	0	---	0.00	29.881 
10:00	65.2	65.2	65.2	75	57.1	0	1	112	0.00	29.888 
10:05	65.5	65.5	65.5	75	57.4	0	2	112	0.00	29.888 
10:10	65.8	65.8	65.8	76	58.0	0	1	112	0.00	29.888 
10:15	66.0	66.0	66.0	75	57.8	0	3	112	0.00	29.887 
10:20	66.3	66.3	66.3	76	58.5	0	1	112	0.00	29.887 
10:25	66.8	66.8	66.8	75	58.6	1	3	112	0.00	29.887 
10:30	67.1	67.1	67.1	74	58.5	0	1	112	0.00	29.883 
10:35	67.4	67.4	67.4	74	58.8	0	0	---	0.00	29.883 
10:40	67.8	67.8	67.8	74	59.2	0	0	---	0.00	29.883 
10:45	68.6	68.6	68.6	73	59.6	0	2	112	0.00	29.890 
10:50	69.9	69.9	69.9	72	60.4	0	2	112	0.00	29.890 
10:55	71.1	71.1	71.1	68	60.0	0	2	112	0.00	29.890 
11:00	71.8	71.8	71.8	68	60.7	0	1	112	0.00	29.886 
11:05	72.5	72.5	72.5	66	60.5	0	1	112	0.00	29.886 
11:10	73.3	73.3	73.3	65	60.8	1	2	112	0.00	29.886 
11:15	73.9	73.9	73.9	65	61.4	0	2	112	0.00	29.878 
11:20	74.7	74.7	74.7	64	61.7	0	2	112	0.00	29.878 
11:25	75.4	75.4	77.4	64	62.4	0	2	112	0.00	29.878 
11:30	75.8	75.8	77.8	63	62.3	0	2	112	0.00	29.875 
11:35	76.0	76.0	77.9	63	62.5	1	3	112	0.00	29.875 
11:40	76.3	76.3	78.2	63	62.8	0	2	112	0.00	29.875 
11:45	76.8	76.8	78.6	64	63.7	0	2	112	0.00	29.873 
11:50	77.6	77.6	79.4	63	64.0	0	2	112	0.00	29.873 
11:55	78.3	78.3	80.1	62	64.2	0	2	112	0.00	29.873 
12:00	79.2	79.2	81.1	62	65.0	0	2	135	0.00	29.866 
12:05	79.6	79.6	81.3	59	64.0	0	2	135	0.00	29.866 
12:10	79.6	79.6	81.3	59	64.0	1	3	270	0.00	29.866 
12:15	79.4	79.4	81.0	59	63.8	1	4	270	0.00	29.871 
12:20	79.0	79.0	80.7	60	63.9	1	3	270	0.00	29.871 
12:25	78.6	78.6	80.4	62	64.5	1	3	270	0.00	29.871 
12:30	78.5	78.5	80.3	63	64.8	1	3	270	0.00	29.874 
12:35	78.5	78.5	80.3	63	64.8	1	3	292	0.00	29.874 
12:40	78.6	78.6	80.5	64	65.4	1	3	292	0.00	29.874 
12:45	78.8	78.8	80.7	64	65.6	1	3	292	0.00	29.873 
12:50	78.8	78.8	80.7	63	65.1	1	6	248	0.00	29.873 
12:55	79.2	79.2	81.1	63	65.5	1	3	248	0.00	29.873 
13:00	79.4	79.4	81.3	62	65.2	1	2	248	0.00	29.867 
13:05	79.4	79.4	81.3	62	65.2	1	4	292	0.00	29.867 
13:10	79.4	79.4	81.2	61	64.8	1	3	248	0.00	29.867 
13:15	79.2	79.2	80.8	59	63.6	2	4	248	0.00	29.860 
13:20	79.4	79.4	80.9	58	63.3	3	5	248	0.00	29.860 
13:25	79.8	79.8	81.3	57	63.2	2	4	248	0.00	29.860 
13:30	80.1	80.1	81.5	56	63.0	2	4	270	0.00	29.857 
13:35	80.3	80.3	81.7	56	63.1	1	3	270	0.00	29.857 
13:40	80.7	80.7	82.3	57	64.0	0	3	270	0.00	29.857 
13:45	81.4	81.4	83.1	57	64.7	1	4	270	0.00	29.852 
13:50	82.4	82.4	83.9	54	64.1	1	3	248	0.00	29.852 
13:55	83.2	83.2	84.5	52	63.7	1	3	248	0.00	29.852 
14:00	83.8	83.8	85.3	52	64.3	1	4	248	0.00	29.844 
14:05	84.3	84.3	85.5	50	63.6	1	3	270	0.00	29.844 
14:10	84.7	84.7	86.3	51	64.5	1	4	270	0.00	29.844 
14:15	84.9	84.9	85.4	46	61.8	2	5	270	0.00	29.840 
14:20	85.1	85.1	86.4	49	63.8	1	4	248	0.00	29.840 
14:25	85.1	85.1	85.7	46	62.0	2	4	270	0.00	29.840 
14:30	84.9	84.9	85.4	46	61.8	2	3	270	0.00	29.837 
14:35	84.9	84.9	85.8	48	63.0	0	2	292	0.00	29.837 
14:40	85.1	85.1	86.1	48	63.2	1	2	248	0.00	29.837 
14:45	85.1	85.1	86.1	48	63.2	1	4	248	0.00	29.832 
14:50	85.1	85.1	85.2	44	60.7	1	4	248	0.00	29.832 
14:55	85.1	85.1	85.4	45	61.3	2	5	270	0.00	29.832 
15:00	85.5	85.5	86.6	48	63.5	1	3	270	0.00	29.827 
15:05	85.5	85.5	85.9	45	61.7	2	4	248	0.00	29.827 
15:10	85.7	85.7	86.7	47	63.1	1	3	248	0.00	29.827 
15:15	85.9	85.9	86.7	46	62.7	1	2	248	0.00	29.825 
15:20	85.9	85.9	87.5	49	64.5	1	3	90	0.00	29.825 
15:25	86.1	86.1	87.0	46	62.9	0	2	90	0.00	29.825 
15:30	86.5	86.5	87.0	44	62.0	1	4	292	0.00	29.820 
15:35	86.5	86.5	87.5	46	63.2	2	5	292	0.00	29.820 
15:40	86.5	86.5	87.0	44	62.0	1	4	68	0.00	29.820 
15:45	86.7	86.7	85.8	38	58.0	1	4	270	0.00	29.811 
15:50	86.7	86.7	86.0	39	58.7	1	3	270	0.00	29.811 
15:55	87.0	87.0	86.9	41	60.4	1	3	270	0.00	29.811 
16:00	87.0	87.0	85.8	36	56.8	2	4	270	0.00	29.808 
16:05	87.2	87.2	86.4	38	58.5	1	3	270	0.00	29.808 
16:10	87.4	87.4	87.1	40	60.1	1	3	270	0.00	29.808 
16:15	87.4	87.4	86.4	37	57.9	1	3	270	0.00	29.802 
16:20	87.4	87.4	86.4	37	57.9	1	3	270	0.00	29.802 
16:25	87.4	87.4	86.4	37	57.9	1	4	292	0.00	29.802 
16:30	87.0	87.0	86.2	38	58.3	1	3	315	0.00	29.797 
16:35	87.0	87.0	86.4	39	59.0	1	3	315	0.00	29.797 
16:40	87.4	87.4	86.7	38	58.6	1	3	270	0.00	29.797 
16:45	87.6	87.6	86.9	38	58.8	1	4	270	0.00	29.791 
16:50	87.4	87.4	86.2	36	57.1	1	4	270	0.00	29.791 
16:55	86.7	86.7	85.8	38	58.0	1	4	270	0.00	29.791 
17:00	86.3	86.3	85.4	38	57.7	1	3	248	0.00	29.790 
17:05	85.9	85.9	85.3	40	58.7	0	2	248	0.00	29.790 
17:10	85.9	85.9	85.5	41	59.4	1	4	248	0.00	29.790 
17:15	85.9	85.9	85.7	42	60.1	0	2	248	0.00	29.785 
17:20	86.1	86.1	85.2	38	57.5	1	4	248	0.00	29.785 
17:25	86.3	86.3	85.6	39	58.4	1	5	270	0.00	29.785 
17:30	86.5	86.5	85.2	36	56.3	2	4	248	0.00	29.781 
17:35	86.7	86.7	86.3	40	59.5	0	3	248	0.00	29.781 
17:40	86.7	86.7	85.6	37	57.3	2	5	270	0.00	29.781 
17:45	87.0	87.0	86.6	40	59.7	0	3	270	0.00	29.778 
17:50	86.3	86.3	86.0	41	59.8	1	4	315	0.00	29.778 
17:55	86.1	86.1	86.2	43	61.0	1	3	248	0.00	29.778 
18:00	85.7	85.7	84.9	39	57.9	2	9	270	0.00	29.782 
18:05	85.5	85.5	84.5	38	57.0	1	4	270	0.00	29.782 
18:10	85.3	85.3	85.0	42	59.6	0	2	248	0.00	29.782 
18:15	85.3	85.3	85.2	43	60.2	1	3	248	0.00	29.778 
18:20	85.3	85.3	84.8	41	58.9	1	4	292	0.00	29.778 
18:25	85.5	85.5	85.1	41	59.1	1	2	292	0.00	29.778 
18:30	85.3	85.3	84.7	40	58.2	1	3	292	0.00	29.778 
18:35	85.3	85.3	85.0	42	59.6	1	3	292	0.00	29.778 
18:40	84.9	84.9	84.6	42	59.2	1	5	292	0.00	29.778 
18:45	84.7	84.7	84.2	41	58.4	1	4	270	0.00	29.776 
18:50	84.5	84.5	84.0	41	58.2	1	3	270	0.00	29.776 
18:55	84.5	84.5	84.0	41	58.2	1	3	270	0.00	29.776 
19:00	84.3	84.3	83.9	42	58.7	1	3	270	0.00	29.771 
19:05	84.3	84.3	83.6	40	57.3	1	3	270	0.00	29.771 
19:10	84.3	84.3	83.6	40	57.3	1	5	270	0.00	29.771 
19:15	84.3	84.3	83.6	40	57.3	1	5	248	0.00	29.766 
19:20	84.3	84.3	83.8	41	58.0	0	2	248	0.00	29.766 
19:25	84.0	84.0	83.8	43	59.1	1	2	248	0.00	29.766 
19:30	83.8	83.8	83.1	40	56.9	1	3	248	0.00	29.771 
19:35	83.8	83.8	83.1	40	56.9	1	3	270	0.00	29.771 
19:40	83.6	83.6	83.0	41	57.4	1	4	270	0.00	29.771 
19:45	83.2	83.2	82.8	42	57.7	1	3	270	0.00	29.773 
19:50	82.8	82.8	82.7	44	58.6	0	1	270	0.00	29.773 
19:55	82.4	82.4	82.5	45	58.9	0	2	270	0.00	29.773 
20:00	82.0	82.0	82.1	45	58.5	0	1	270	0.00	29.777 
20:05	81.6	81.6	81.8	46	58.8	0	0	---	0.00	29.777 
20:10	81.4	81.4	81.8	47	59.2	0	0	---	0.00	29.777 
20:15	80.9	80.9	81.4	48	59.3	0	1	270	0.00	29.769 
20:20	80.5	80.5	81.2	49	59.6	0	0	---	0.00	29.769 
20:25	80.1	80.1	80.9	50	59.8	0	0	---	0.00	29.769 
20:30	79.6	79.6	80.5	51	59.9	0	0	---	0.00	29.767 
20:35	79.2	79.2	80.3	52	60.0	0	0	---	0.00	29.767 
20:40	78.6	78.6	79.8	53	60.0	0	0	---	0.00	29.767 
20:45	78.3	78.3	79.7	54	60.3	0	0	---	0.00	29.773 
20:50	77.7	77.7	79.2	54	59.7	0	0	---	0.00	29.773 
20:55	77.4	77.4	79.0	56	60.5	0	0	---	0.00	29.773 
21:00	77.0	77.0	78.7	57	60.6	0	0	---	0.00	29.779 
21:05	76.7	76.7	78.5	58	60.8	0	0	---	0.00	29.779 
21:10	76.3	76.3	78.2	58	60.4	0	0	---	0.00	29.779 
21:15	76.1	76.1	78.1	59	60.7	0	0	---	0.00	29.782 
21:20	76.0	76.0	78.0	60	61.1	0	0	---	0.00	29.782 
21:25	75.8	75.8	77.9	60	60.9	0	0	---	0.00	29.782 
21:30	75.8	75.8	77.9	59	60.4	0	0	---	0.00	29.787 
21:35	75.6	75.6	77.7	60	60.7	0	0	---	0.00	29.787 
21:40	75.4	75.4	77.6	60	60.5	0	0	---	0.00	29.787 
21:45	75.3	75.3	77.5	60	60.4	0	0	---	0.00	29.792 
21:50	75.1	75.1	77.4	60	60.2	0	0	---	0.00	29.792 
21:55	74.9	74.9	74.9	60	60.1	0	0	---	0.00	29.792 
22:00	74.7	74.7	74.7	61	60.3	0	0	---	0.00	29.795 
22:05	74.6	74.6	74.6	61	60.2	0	0	---	0.00	29.795 
22:10	74.4	74.4	74.4	61	60.1	0	0	---	0.00	29.795 
22:15	74.2	74.2	74.2	61	59.9	0	0	---	0.00	29.792 
22:20	74.2	74.2	74.2	62	60.3	0	0	---	0.00	29.792 
22:25	74.0	74.0	74.0	61	59.7	0	0	---	0.00	29.792 
22:30	73.9	73.9	73.9	62	60.0	0	0	---	0.00	29.793 
22:35	73.7	73.7	73.7	62	59.9	0	0	---	0.00	29.793 
22:40	73.5	73.5	73.5	62	59.7	0	0	---	0.00	29.793 
22:45	73.3	73.3	73.3	62	59.5	0	0	---	0.00	29.795 
22:50	73.2	73.2	73.2	63	59.8	0	0	---	0.00	29.795 
22:55	73.0	73.0	73.0	63	59.6	0	0	---	0.00	29.795 
23:00	73.0	73.0	73.0	63	59.6	0	0	---	0.00	29.790 
23:05	72.7	72.7	72.7	63	59.4	0	0	---	0.00	29.790 
23:10	72.5	72.5	72.5	64	59.6	0	0	---	0.00	29.790 
23:15	72.3	72.3	72.3	64	59.4	0	0	---	0.00	29.782 
23:20	72.1	72.1	72.1	65	59.7	0	0	---	0.00	29.782 
23:25	72.0	72.0	72.0	65	59.6	0	0	---	0.00	29.782 
23:30	71.8	71.8	71.8	65	59.4	0	0	---	0.00	29.783 
23:35	71.6	71.6	71.6	66	59.6	0	0	---	0.00	29.783 
23:40	71.5	71.5	71.5	67	60.0	0	0	---	0.00	29.783 
23:45	71.1	71.1	71.1	67	59.6	0	0	---	0.00	29.776 
23:50	70.9	70.9	70.9	68	59.8	0	0	---	0.00	29.776 
23:55	70.9	70.9	70.9	68	59.8	0	0	---	0.00	29.776 

CoCoRaHS
IN-AL-39
A2 Web Hosting
Creative Commons License
GoDaddy
search engine by freefind advanced

loaded 2018-11-17 05:41:34 • last modified 2010-11-18 10:43:29
Privacy PolicyDisclaimer
• wx.awcolley.com is powered by PmWiki v.2002016 •
• all content (unless otherwise noted) © 2018 A W Colley